Time;durP1;ratioP1;P1;durP2;ratioP2;P2;SDS_P1;SDS_P2;PMS_P1;PMS_P2;Temp;Humidity;BMP_temperature;BMP_pressure;BME280_temperature;BME280_humidity;BME280_pressure;Samples;Min_cycle;Max_cycle;Signal;HPM_P1;HPM_P2
2023/09/06 00:01:33;;;;;;;7.40;4.97;;;;;;;;;;4986607;28;99902;-71
2023/09/06 00:04:01;;;;;;;5.10;4.60;;;;;;;;;;4984867;28;99691;-70
2023/09/06 00:06:27;;;;;;;5.10;4.70;;;;;;;;;;4980236;28;100432;-71
2023/09/06 00:08:54;;;;;;;6.82;4.95;;;;;;;;;;4976730;28;99287;-70
2023/09/06 00:11:20;;;;;;;5.45;4.90;;;;;;;;;;4985478;28;100812;-70
2023/09/06 00:13:47;;;;;;;5.32;4.93;;;;;;;;;;4986805;28;99831;-72
2023/09/06 00:16:15;;;;;;;14.32;5.28;;;;;;;;;;4986562;28;98613;-71
2023/09/06 00:18:42;;;;;;;5.80;5.30;;;;;;;;;;4988768;28;100362;-72
2023/09/06 00:21:08;;;;;;;8.20;4.97;;;;;;;;;;4978952;28;99930;-71
2023/09/06 00:23:35;;;;;;;5.55;5.00;;;;;;;;;;4978070;28;100590;-71
2023/09/06 00:26:02;;;;;;;5.40;4.72;;;;;;;;;;4971980;28;99424;-71
2023/09/06 00:28:28;;;;;;;5.72;5.22;;;;;;;;;;4972739;28;101612;-70
2023/09/06 00:30:57;;;;;;;5.18;4.70;;;;;;;;;;4976719;28;100397;-71
2023/09/06 00:33:26;;;;;;;9.52;4.78;;;;;;;;;;4982561;28;98934;-72
2023/09/06 00:35:54;;;;;;;5.88;5.25;;;;;;;;;;4977467;28;99891;-71
2023/09/06 00:38:20;;;;;;;5.38;4.97;;;;;;;;;;4977269;28;98668;-71
2023/09/06 00:40:51;;;;;;;6.43;5.78;;;;;;;;;;4983269;28;101550;-71
2023/09/06 00:43:18;;;;;;;5.43;4.97;;;;;;;;;;4985017;28;100190;-72
2023/09/06 00:45:50;;;;;;;6.22;5.72;;;;;;;;;;4984663;28;102518;-71
2023/09/06 00:48:21;;;;;;;5.70;5.28;;;;;;;;;;4985292;28;99427;-71
2023/09/06 00:50:51;;;;;;;6.22;5.70;;;;;;;;;;4988561;28;100893;-71
2023/09/06 00:53:19;;;;;;;8.20;5.85;;;;;;;;;;4977933;28;98775;-71
2023/09/06 00:55:48;;;;;;;5.85;5.35;;;;;;;;;;4965970;28;99123;-70
2023/09/06 00:58:17;;;;;;;11.15;5.85;;;;;;;;;;4968860;28;100133;-70
2023/09/06 01:00:43;;;;;;;6.18;5.57;;;;;;;;;;4987642;28;98719;-71
2023/09/06 01:03:10;;;;;;;10.32;5.63;;;;;;;;;;4985853;28;98809;-70
2023/09/06 01:06:01;;;;;;;5.60;5.18;;;;;;;;;;4985840;28;99858;-70
2023/09/06 01:08:31;;;;;;;6.50;5.82;;;;;;;;;;4982164;28;98868;-71
2023/09/06 01:11:20;;;;;;;11.65;5.35;;;;;;;;;;4980157;28;100986;-69
2023/09/06 01:13:50;;;;;;;6.80;5.03;;;;;;;;;;4978730;28;99221;-70
2023/09/06 01:16:26;;;;;;;5.93;5.30;;;;;;;;;;4985115;28;101017;-69
2023/09/06 01:18:53;;;;;;;6.07;5.53;;;;;;;;;;4977645;28;99521;-71
2023/09/06 01:21:23;;;;;;;5.35;4.85;;;;;;;;;;4980140;28;99329;-71
2023/09/06 01:23:51;;;;;;;5.80;5.30;;;;;;;;;;4980921;28;100280;-70
2023/09/06 01:26:18;;;;;;;5.70;5.20;;;;;;;;;;4980842;28;99626;-70
2023/09/06 01:28:44;;;;;;;5.82;5.30;;;;;;;;;;4980381;28;99928;-71
2023/09/06 01:31:11;;;;;;;5.43;5.03;;;;;;;;;;4977478;28;100426;-71
2023/09/06 01:33:39;;;;;;;6.40;5.22;;;;;;;;;;4980164;28;99981;-70
2023/09/06 01:36:06;;;;;;;7.97;5.13;;;;;;;;;;4981780;28;100855;-70
2023/09/06 01:38:32;;;;;;;10.00;6.65;;;;;;;;;;5001725;28;102304;-71
2023/09/06 01:40:59;;;;;;;5.93;5.47;;;;;;;;;;4985849;28;100098;-70
2023/09/06 01:43:28;;;;;;;10.77;5.35;;;;;;;;;;4984750;28;98959;-70
2023/09/06 01:45:55;;;;;;;6.15;5.30;;;;;;;;;;4968463;28;99651;-70
2023/09/06 01:48:22;;;;;;;6.18;5.65;;;;;;;;;;4969170;28;98895;-69
2023/09/06 01:50:48;;;;;;;5.50;5.10;;;;;;;;;;4984589;28;98690;-70
2023/09/06 01:53:15;;;;;;;7.10;5.55;;;;;;;;;;4988401;28;98446;-71
2023/09/06 01:55:42;;;;;;;5.00;4.57;;;;;;;;;;4988952;28;98754;-70
2023/09/06 01:58:09;;;;;;;5.63;5.13;;;;;;;;;;4985840;28;101712;-69
2023/09/06 02:00:37;;;;;;;5.25;4.80;;;;;;;;;;4973944;28;102057;-71
2023/09/06 02:03:06;;;;;;;5.00;4.60;;;;;;;;;;4979076;28;100597;-71
2023/09/06 02:05:33;;;;;;;5.78;5.00;;;;;;;;;;4977564;28;100262;-70
2023/09/06 02:08:01;;;;;;;5.18;4.78;;;;;;;;;;4982296;28;100235;-70
2023/09/06 02:10:27;;;;;;;5.35;4.95;;;;;;;;;;4979790;28;99851;-69
2023/09/06 02:12:54;;;;;;;4.88;4.47;;;;;;;;;;4979272;28;100265;-69
2023/09/06 02:15:20;;;;;;;6.18;4.93;;;;;;;;;;4984270;28;100227;-71
2023/09/06 02:17:47;;;;;;;5.38;4.93;;;;;;;;;;4975984;28;101247;-69
2023/09/06 02:20:20;;;;;;;6.20;5.22;;;;;;;;;;4982807;28;99761;-71
2023/09/06 02:22:48;;;;;;;5.28;4.88;;;;;;;;;;4978727;28;101294;-71
2023/09/06 02:25:15;;;;;;;5.15;4.75;;;;;;;;;;4977021;28;100737;-70
2023/09/06 02:27:42;;;;;;;8.13;5.63;;;;;;;;;;4976596;28;99614;-70
2023/09/06 02:30:09;;;;;;;9.48;5.28;;;;;;;;;;4974154;28;100053;-71
2023/09/06 02:32:35;;;;;;;5.95;5.43;;;;;;;;;;4976460;28;99759;-70
2023/09/06 02:35:02;;;;;;;5.30;4.90;;;;;;;;;;4973469;28;102434;-70
2023/09/06 02:37:29;;;;;;;6.80;5.43;;;;;;;;;;4978975;28;100420;-70
2023/09/06 02:39:55;;;;;;;6.53;5.47;;;;;;;;;;4976316;28;99117;-70
2023/09/06 02:42:22;;;;;;;7.40;5.63;;;;;;;;;;4978641;28;100081;-71
2023/09/06 02:44:49;;;;;;;5.70;5.30;;;;;;;;;;4972099;28;99096;-71
2023/09/06 02:47:15;;;;;;;6.45;5.03;;;;;;;;;;4978582;28;101758;-71
2023/09/06 02:49:43;;;;;;;5.55;5.10;;;;;;;;;;4975832;28;100344;-71
2023/09/06 02:52:20;;;;;;;5.90;5.30;;;;;;;;;;4980480;28;100060;-70
2023/09/06 02:54:47;;;;;;;7.07;5.82;;;;;;;;;;4973120;28;100099;-71
2023/09/06 02:57:17;;;;;;;6.47;5.88;;;;;;;;;;4971817;28;99879;-71
2023/09/06 02:59:43;;;;;;;5.82;5.30;;;;;;;;;;4975047;28;101680;-71
2023/09/06 03:02:12;;;;;;;6.20;5.65;;;;;;;;;;4982433;28;99058;-71
2023/09/06 03:04:40;;;;;;;6.18;5.63;;;;;;;;;;4986500;28;99331;-71
2023/09/06 03:07:08;;;;;;;6.03;5.53;;;;;;;;;;4987054;28;101892;-69
2023/09/06 03:09:36;;;;;;;6.10;5.68;;;;;;;;;;4987864;28;100424;-71
2023/09/06 03:12:16;;;;;;;12.52;5.85;;;;;;;;;;4989503;28;98415;-71
2023/09/06 03:14:47;;;;;;;6.80;6.25;;;;;;;;;;4975647;28;101817;-70
2023/09/06 03:17:18;;;;;;;7.18;5.53;;;;;;;;;;4984677;28;104029;-70
2023/09/06 03:19:48;;;;;;;8.20;5.70;;;;;;;;;;4986383;28;102170;-70
2023/09/06 03:22:15;;;;;;;6.07;5.57;;;;;;;;;;4985480;28;101654;-70
2023/09/06 03:24:43;;;;;;;6.35;5.75;;;;;;;;;;4990180;28;98853;-71
2023/09/06 03:27:16;;;;;;;6.57;6.07;;;;;;;;;;4985866;28;101130;-70
2023/09/06 03:29:50;;;;;;;6.25;5.75;;;;;;;;;;4985591;28;100788;-70
2023/09/06 03:32:20;;;;;;;6.43;5.82;;;;;;;;;;4984763;28;100372;-71
2023/09/06 03:34:47;;;;;;;11.10;6.20;;;;;;;;;;4985207;28;103507;-71
2023/09/06 03:37:18;;;;;;;7.45;6.25;;;;;;;;;;4986299;28;98976;-70
2023/09/06 03:39:44;;;;;;;6.93;6.10;;;;;;;;;;4985945;28;100776;-71
2023/09/06 03:42:15;;;;;;;9.57;6.20;;;;;;;;;;4987086;28;98758;-70
2023/09/06 03:44:42;;;;;;;10.75;6.20;;;;;;;;;;4971652;28;100463;-69
2023/09/06 03:47:16;;;;;;;14.18;6.45;;;;;;;;;;4985004;28;100205;-71
2023/09/06 03:49:43;;;;;;;6.03;5.47;;;;;;;;;;4980472;28;99996;-70
2023/09/06 03:52:16;;;;;;;12.45;6.60;;;;;;;;;;4978914;28;101915;-70
2023/09/06 03:54:43;;;;;;;6.32;5.72;;;;;;;;;;4978586;28;101492;-71
2023/09/06 03:57:12;;;;;;;6.15;5.65;;;;;;;;;;4970704;28;99766;-71
2023/09/06 03:59:40;;;;;;;6.28;5.75;;;;;;;;;;4973881;28;101037;-70
2023/09/06 04:02:08;;;;;;;6.75;6.07;;;;;;;;;;4975660;28;101693;-70
2023/09/06 04:04:35;;;;;;;7.00;6.32;;;;;;;;;;4981165;28;99330;-70
2023/09/06 04:07:02;;;;;;;6.57;5.97;;;;;;;;;;4985594;28;101447;-70
2023/09/06 04:09:37;;;;;;;14.52;5.95;;;;;;;;;;4984401;28;101367;-70
2023/09/06 04:12:07;;;;;;;9.27;6.68;;;;;;;;;;4976627;28;99948;-71
2023/09/06 04:14:38;;;;;;;6.72;6.13;;;;;;;;;;4969804;28;100824;-71
2023/09/06 04:17:07;;;;;;;10.50;6.93;;;;;;;;;;4977109;28;100813;-71
2023/09/06 04:19:35;;;;;;;11.55;7.60;;;;;;;;;;4970400;28;99691;-71
2023/09/06 04:22:02;;;;;;;10.65;6.88;;;;;;;;;;4973648;28;99988;-71
2023/09/06 04:24:36;;;;;;;16.80;8.30;;;;;;;;;;4976749;28;100230;-71
2023/09/06 04:27:07;;;;;;;8.13;6.38;;;;;;;;;;4970257;28;101014;-70
2023/09/06 04:29:34;;;;;;;7.45;6.75;;;;;;;;;;4971783;28;99894;-70
2023/09/06 04:32:01;;;;;;;8.73;6.53;;;;;;;;;;5001078;28;103689;-71
2023/09/06 04:34:28;;;;;;;12.82;5.82;;;;;;;;;;4985423;28;98739;-71
2023/09/06 04:36:54;;;;;;;7.18;6.57;;;;;;;;;;4985446;28;99862;-71
2023/09/06 04:39:23;;;;;;;7.38;6.55;;;;;;;;;;4985302;28;102081;-72
2023/09/06 04:41:49;;;;;;;7.63;6.65;;;;;;;;;;4977119;28;99818;-72
2023/09/06 04:44:17;;;;;;;11.15;7.63;;;;;;;;;;4972916;28;101685;-71
2023/09/06 04:46:46;;;;;;;12.38;6.93;;;;;;;;;;4971590;28;100290;-71
2023/09/06 04:49:13;;;;;;;6.57;5.97;;;;;;;;;;4974557;28;99991;-71
2023/09/06 04:51:39;;;;;;;17.60;7.72;;;;;;;;;;4987090;28;99394;-71
2023/09/06 04:54:09;;;;;;;7.88;6.75;;;;;;;;;;4987053;28;99302;-71
2023/09/06 04:56:35;;;;;;;7.70;6.55;;;;;;;;;;4992164;28;99628;-71
2023/09/06 04:59:02;;;;;;;7.45;6.47;;;;;;;;;;5008467;28;101914;-71
2023/09/06 05:01:30;;;;;;;7.82;7.03;;;;;;;;;;5008529;28;98881;-70
2023/09/06 05:03:56;;;;;;;8.18;6.93;;;;;;;;;;5008349;28;102120;-71
2023/09/06 05:06:23;;;;;;;8.38;6.40;;;;;;;;;;5009420;28;99036;-70
2023/09/06 05:08:50;;;;;;;7.78;6.72;;;;;;;;;;4996745;28;100022;-70
2023/09/06 05:11:21;;;;;;;8.38;7.28;;;;;;;;;;4980442;28;102285;-70
2023/09/06 05:13:49;;;;;;;9.07;7.78;;;;;;;;;;4978878;28;100710;-70
2023/09/06 05:16:16;;;;;;;7.93;7.13;;;;;;;;;;4979798;28;99991;-70
2023/09/06 05:18:43;;;;;;;11.65;7.03;;;;;;;;;;4981207;28;102500;-71
2023/09/06 05:21:16;;;;;;;7.93;7.15;;;;;;;;;;4986077;28;101869;-71
2023/09/06 05:23:42;;;;;;;8.73;7.82;;;;;;;;;;4976058;28;100151;-71
2023/09/06 05:26:10;;;;;;;9.88;6.68;;;;;;;;;;4978060;28;101586;-71
2023/09/06 05:28:47;;;;;;;8.48;6.32;;;;;;;;;;4979366;28;100682;-70
2023/09/06 05:31:16;;;;;;;9.82;6.85;;;;;;;;;;4975406;28;101648;-70
2023/09/06 05:33:45;;;;;;;10.35;7.22;;;;;;;;;;4985787;28;100142;-70
2023/09/06 05:36:14;;;;;;;7.27;6.67;;;;;;;;;;4991191;28;101696;-70
2023/09/06 05:38:41;;;;;;;7.28;6.68;;;;;;;;;;4987113;28;99195;-71
2023/09/06 05:41:08;;;;;;;7.90;7.00;;;;;;;;;;4979517;28;99334;-71
2023/09/06 05:43:40;;;;;;;6.68;5.97;;;;;;;;;;4976448;28;101390;-70
2023/09/06 05:46:07;;;;;;;10.55;6.72;;;;;;;;;;4983659;28;99637;-71
2023/09/06 05:48:55;;;;;;;7.18;6.47;;;;;;;;;;4978568;28;99931;-69
2023/09/06 05:51:24;;;;;;;10.88;6.68;;;;;;;;;;4977612;28;99830;-71
2023/09/06 05:53:50;;;;;;;8.15;7.38;;;;;;;;;;4988900;28;99268;-70
2023/09/06 05:56:17;;;;;;;7.53;6.82;;;;;;;;;;4992563;28;101660;-71
2023/09/06 05:58:43;;;;;;;10.50;6.60;;;;;;;;;;4972073;28;101661;-71
2023/09/06 06:01:12;;;;;;;6.88;6.13;;;;;;;;;;4986327;28;101463;-71
2023/09/06 06:03:39;;;;;;;7.78;6.35;;;;;;;;;;4987557;28;99059;-70
2023/09/06 06:06:10;;;;;;;6.55;5.95;;;;;;;;;;4987767;28;99092;-70
2023/09/06 06:08:37;;;;;;;7.88;6.18;;;;;;;;;;4987375;28;101504;-70
2023/09/06 06:11:04;;;;;;;8.43;6.00;;;;;;;;;;4987653;28;99735;-69
2023/09/06 06:13:30;;;;;;;11.15;6.57;;;;;;;;;;4986094;28;100640;-70
2023/09/06 06:15:57;;;;;;;7.00;6.35;;;;;;;;;;4975882;28;100098;-74
2023/09/06 06:18:26;;;;;;;6.47;5.88;;;;;;;;;;4975792;28;100309;-70
2023/09/06 06:20:54;;;;;;;12.95;6.50;;;;;;;;;;4981121;28;100235;-70
2023/09/06 06:23:21;;;;;;;11.80;5.97;;;;;;;;;;4972192;28;100015;-69
2023/09/06 06:25:47;;;;;;;7.95;7.15;;;;;;;;;;4974589;28;99146;-71
2023/09/06 06:28:13;;;;;;;5.65;5.20;;;;;;;;;;4969792;28;101026;-71
2023/09/06 06:30:40;;;;;;;5.47;5.07;;;;;;;;;;4969565;28;100311;-70
2023/09/06 06:33:07;;;;;;;8.52;5.32;;;;;;;;;;4974862;28;100228;-70
2023/09/06 06:35:34;;;;;;;8.63;6.20;;;;;;;;;;4970933;28;100489;-70
2023/09/06 06:38:02;;;;;;;5.30;4.70;;;;;;;;;;4966763;28;100147;-71
2023/09/06 06:40:29;;;;;;;13.07;5.10;;;;;;;;;;4970678;28;99535;-70
2023/09/06 06:42:56;;;;;;;8.25;5.40;;;;;;;;;;4973871;28;99879;-71
2023/09/06 06:45:22;;;;;;;8.60;5.82;;;;;;;;;;4971425;28;99244;-68
2023/09/06 06:47:49;;;;;;;6.20;5.57;;;;;;;;;;4970561;28;100184;-70
2023/09/06 06:50:15;;;;;;;5.97;5.38;;;;;;;;;;4973617;28;99335;-70
2023/09/06 06:52:44;;;;;;;5.75;5.25;;;;;;;;;;4973575;28;100281;-69
2023/09/06 06:55:11;;;;;;;5.38;4.90;;;;;;;;;;4978300;28;99375;-69
2023/09/06 06:57:38;;;;;;;5.78;5.28;;;;;;;;;;4970365;28;100091;-70
2023/09/06 07:00:05;;;;;;;5.60;5.10;;;;;;;;;;4970919;28;99832;-70
2023/09/06 07:02:33;;;;;;;7.10;5.53;;;;;;;;;;4976465;28;100149;-70
2023/09/06 07:04:59;;;;;;;5.82;5.35;;;;;;;;;;4976098;28;100399;-69
2023/09/06 07:07:26;;;;;;;6.30;5.10;;;;;;;;;;4969848;28;100131;-70
2023/09/06 07:09:52;;;;;;;7.30;5.65;;;;;;;;;;4971551;28;100528;-70
2023/09/06 07:12:19;;;;;;;11.18;5.07;;;;;;;;;;4966907;28;100046;-70
2023/09/06 07:14:45;;;;;;;5.72;5.43;;;;;;;;;;4969976;28;99019;-70
2023/09/06 07:17:11;;;;;;;7.25;5.68;;;;;;;;;;4966132;28;99496;-70
2023/09/06 07:19:38;;;;;;;5.70;5.15;;;;;;;;;;4975206;28;99348;-70
2023/09/06 07:22:06;;;;;;;5.57;5.05;;;;;;;;;;4986573;28;99251;-71
2023/09/06 07:24:32;;;;;;;14.00;5.45;;;;;;;;;;4984176;28;99699;-71
2023/09/06 07:26:59;;;;;;;11.00;5.22;;;;;;;;;;4974450;28;99883;-71
2023/09/06 07:29:25;;;;;;;5.18;4.88;;;;;;;;;;4975818;28;99936;-71
2023/09/06 07:31:51;;;;;;;5.30;5.00;;;;;;;;;;4974303;28;100086;-71
2023/09/06 07:34:18;;;;;;;5.32;5.00;;;;;;;;;;4971744;28;100042;-71
2023/09/06 07:36:44;;;;;;;5.47;4.97;;;;;;;;;;4972474;28;100409;-71
2023/09/06 07:39:11;;;;;;;9.13;4.95;;;;;;;;;;4967935;28;99289;-71
2023/09/06 07:41:37;;;;;;;12.27;4.93;;;;;;;;;;4967330;28;100627;-71
2023/09/06 07:44:09;;;;;;;6.47;5.07;;;;;;;;;;4966375;28;99138;-71
2023/09/06 07:46:36;;;;;;;10.25;4.82;;;;;;;;;;4969904;28;101030;-72
2023/09/06 07:49:03;;;;;;;5.75;5.30;;;;;;;;;;4967280;28;101211;-71
2023/09/06 07:51:30;;;;;;;5.57;5.20;;;;;;;;;;4966194;28;100201;-71
2023/09/06 07:53:57;;;;;;;6.18;4.47;;;;;;;;;;4966915;28;100260;-72
2023/09/06 07:56:23;;;;;;;5.85;4.75;;;;;;;;;;4966994;28;100317;-72
2023/09/06 07:58:50;;;;;;;5.20;4.70;;;;;;;;;;4966345;28;99636;-72
2023/09/06 08:01:17;;;;;;;8.50;4.85;;;;;;;;;;4971467;28;98949;-72
2023/09/06 08:03:46;;;;;;;12.10;4.82;;;;;;;;;;4969848;28;98779;-72
2023/09/06 08:06:13;;;;;;;5.47;4.97;;;;;;;;;;4966121;28;100091;-71
2023/09/06 08:08:40;;;;;;;6.57;5.53;;;;;;;;;;4970653;28;98989;-71
2023/09/06 08:11:08;;;;;;;4.50;4.10;;;;;;;;;;4965820;28;100659;-71
2023/09/06 08:13:34;;;;;;;8.85;4.22;;;;;;;;;;4966617;28;99897;-72
2023/09/06 08:16:00;;;;;;;5.15;4.68;;;;;;;;;;4966740;28;99317;-71
2023/09/06 08:18:28;;;;;;;6.03;4.45;;;;;;;;;;4965957;28;100263;-71
2023/09/06 08:20:55;;;;;;;6.35;4.43;;;;;;;;;;4966937;28;100179;-71
2023/09/06 08:23:22;;;;;;;5.40;4.25;;;;;;;;;;4966707;28;100179;-71
2023/09/06 08:25:48;;;;;;;4.45;4.00;;;;;;;;;;4966213;28;100049;-71
2023/09/06 08:28:16;;;;;;;6.47;5.18;;;;;;;;;;4968646;28;99832;-71
2023/09/06 08:30:46;;;;;;;8.02;4.30;;;;;;;;;;4974423;28;99642;-72
2023/09/06 08:33:13;;;;;;;6.95;4.60;;;;;;;;;;4969931;28;99242;-72
2023/09/06 08:35:40;;;;;;;9.70;5.05;;;;;;;;;;4972256;28;99070;-71
2023/09/06 08:38:07;;;;;;;4.88;4.03;;;;;;;;;;4970860;28;99300;-72
2023/09/06 08:40:38;;;;;;;;;;;;;;;;;;4970253;28;99901;-72
2023/09/06 08:43:05;;;;;;;3.90;3.60;;;;;;;;;;4973038;28;129136;-71
2023/09/06 08:45:31;;;;;;;4.75;3.90;;;;;;;;;;4969549;28;100351;-72
2023/09/06 08:47:58;;;;;;;4.65;3.67;;;;;;;;;;4969455;28;100533;-71
2023/09/06 08:50:25;;;;;;;4.35;3.67;;;;;;;;;;4969625;28;99526;-71
2023/09/06 08:52:53;;;;;;;5.68;3.63;;;;;;;;;;4973701;28;99476;-71
2023/09/06 08:55:20;;;;;;;9.32;3.70;;;;;;;;;;4968933;28;99276;-71
2023/09/06 08:57:47;;;;;;;4.35;3.75;;;;;;;;;;4969774;28;99271;-71
2023/09/06 09:00:14;;;;;;;7.53;3.50;;;;;;;;;;4969024;28;99299;-71
2023/09/06 09:02:42;;;;;;;5.40;4.07;;;;;;;;;;4969659;28;100222;-71
2023/09/06 09:05:10;;;;;;;4.88;3.30;;;;;;;;;;4969728;28;100198;-72
2023/09/06 09:07:56;;;;;;;4.18;3.80;;;;;;;;;;4969042;28;101730;-71
2023/09/06 09:10:26;;;;;;;5.80;4.40;;;;;;;;;;4969457;28;98994;-71
2023/09/06 09:12:54;;;;;;;7.00;4.47;;;;;;;;;;4977791;28;100097;-71
2023/09/06 09:15:22;;;;;;;4.32;3.58;;;;;;;;;;4986951;28;99981;-72
2023/09/06 09:17:50;;;;;;;4.28;3.90;;;;;;;;;;4989890;28;99418;-71
2023/09/06 09:20:34;;;;;;;6.00;3.50;;;;;;;;;;4988850;28;100151;-72
2023/09/06 09:23:01;;;;;;;3.97;3.58;;;;;;;;;;4988472;28;99199;-72
2023/09/06 09:25:29;;;;;;;5.88;4.95;;;;;;;;;;4988374;28;99114;-71
2023/09/06 09:27:58;;;;;;;6.47;4.22;;;;;;;;;;4989331;28;98528;-71
2023/09/06 09:30:27;;;;;;;6.68;4.13;;;;;;;;;;4985969;28;100395;-72
2023/09/06 09:33:03;;;;;;;6.28;3.97;;;;;;;;;;4985539;28;100705;-72
2023/09/06 09:35:31;;;;;;;5.95;4.00;;;;;;;;;;4991150;28;100135;-71
2023/09/06 09:38:00;;;;;;;8.93;3.47;;;;;;;;;;4988892;28;100194;-72
2023/09/06 09:40:32;;;;;;;6.85;3.55;;;;;;;;;;4987929;28;100057;-71
2023/09/06 09:43:17;;;;;;;3.75;3.40;;;;;;;;;;4988577;28;98837;-72
2023/09/06 09:45:45;;;;;;;3.50;3.20;;;;;;;;;;4988805;28;100139;-71
2023/09/06 09:48:12;;;;;;;4.70;3.38;;;;;;;;;;4988465;28;100113;-71
2023/09/06 09:50:41;;;;;;;5.00;3.40;;;;;;;;;;4987852;28;99958;-71
2023/09/06 09:53:08;;;;;;;3.97;3.20;;;;;;;;;;4988780;28;100065;-71
2023/09/06 09:55:47;;;;;;;5.38;3.85;;;;;;;;;;4988971;28;99943;-71
2023/09/06 09:58:15;;;;;;;9.60;3.53;;;;;;;;;;4990925;28;99901;-71
2023/09/06 10:00:42;;;;;;;3.55;3.25;;;;;;;;;;4983349;28;100113;-72
2023/09/06 10:03:09;;;;;;;4.60;3.17;;;;;;;;;;4985333;28;99968;-72
2023/09/06 10:05:37;;;;;;;9.70;3.08;;;;;;;;;;4987785;28;99751;-72
2023/09/06 10:08:05;;;;;;;4.88;3.00;;;;;;;;;;4989181;28;100138;-72
2023/09/06 10:10:33;;;;;;;13.27;3.25;;;;;;;;;;4988185;28;99142;-72
2023/09/06 10:13:04;;;;;;;3.47;3.10;;;;;;;;;;4985144;28;100357;-72
2023/09/06 10:15:32;;;;;;;4.30;3.10;;;;;;;;;;4987289;28;100264;-71
2023/09/06 10:17:59;;;;;;;2.83;2.60;;;;;;;;;;4987695;28;100802;-71
2023/09/06 10:20:27;;;;;;;5.45;2.30;;;;;;;;;;4991417;28;99923;-71
2023/09/06 10:22:55;;;;;;;2.08;1.95;;;;;;;;;;4988440;28;100238;-71
2023/09/06 10:25:22;;;;;;;4.80;2.13;;;;;;;;;;4987765;28;99761;-71
2023/09/06 10:27:49;;;;;;;4.10;2.15;;;;;;;;;;4988565;28;99186;-71
2023/09/06 10:30:20;;;;;;;4.28;2.03;;;;;;;;;;4984681;28;99957;-72
2023/09/06 10:32:47;;;;;;;2.45;2.25;;;;;;;;;;4967982;28;98683;-72
2023/09/06 10:35:20;;;;;;;2.30;2.15;;;;;;;;;;4967899;28;100209;-73
2023/09/06 10:38:05;;;;;;;5.82;2.03;;;;;;;;;;4968386;28;99238;-73
2023/09/06 10:40:44;;;;;;;2.65;2.05;;;;;;;;;;4966905;28;101060;-71
2023/09/06 10:43:10;;;;;;;1.77;1.67;;;;;;;;;;4971547;28;99158;-71
2023/09/06 10:45:37;;;;;;;5.88;2.60;;;;;;;;;;4968233;28;100291;-70
2023/09/06 10:48:10;;;;;;;2.65;2.15;;;;;;;;;;4967377;28;99849;-70
2023/09/06 10:50:36;;;;;;;2.15;2.05;;;;;;;;;;4967458;28;100141;-70
2023/09/06 10:53:03;;;;;;;2.47;2.28;;;;;;;;;;4966737;28;100341;-70
2023/09/06 10:55:42;;;;;;;5.20;2.60;;;;;;;;;;4967716;28;99714;-70
2023/09/06 10:58:09;;;;;;;3.00;2.70;;;;;;;;;;4968682;28;100391;-70
2023/09/06 11:00:35;;;;;;;5.55;2.20;;;;;;;;;;4966733;28;100263;-71
2023/09/06 11:03:07;;;;;;;3.25;2.65;;;;;;;;;;4967808;28;100138;-71
2023/09/06 11:05:35;;;;;;;2.55;2.35;;;;;;;;;;4970523;28;100261;-70
2023/09/06 11:08:02;;;;;;;4.05;2.20;;;;;;;;;;4967072;28;99844;-72
2023/09/06 11:10:29;;;;;;;7.85;2.10;;;;;;;;;;4967511;28;100002;-70
2023/09/06 11:13:14;;;;;;;3.13;2.22;;;;;;;;;;5050430;27;97930;-71
2023/09/06 11:15:42;;;;;;;3.15;2.00;;;;;;;;;;5037225;27;98812;-70
2023/09/06 11:18:13;;;;;;;3.92;1.70;;;;;;;;;;5028219;27;98287;-70
2023/09/06 11:20:46;;;;;;;3.28;1.98;;;;;;;;;;5027973;27;98529;-70
2023/09/06 11:23:13;;;;;;;1.85;1.75;;;;;;;;;;5026804;28;99965;-70
2023/09/06 11:25:39;;;;;;;1.65;1.55;;;;;;;;;;5028164;28;98216;-70
2023/09/06 11:28:18;;;;;;;6.88;2.00;;;;;;;;;;5027658;27;98377;-71
2023/09/06 11:30:47;;;;;;;3.13;1.83;;;;;;;;;;5026872;27;99888;-70
2023/09/06 11:33:16;;;;;;;3.90;1.83;;;;;;;;;;5030973;27;98174;-70
2023/09/06 11:35:55;;;;;;;4.75;1.70;;;;;;;;;;5027026;27;98964;-71
2023/09/06 11:38:28;;;;;;;1.63;1.52;;;;;;;;;;5015910;27;98412;-71
2023/09/06 11:40:57;;;;;;;4.25;2.20;;;;;;;;;;5026858;28;99274;-71
2023/09/06 11:43:26;;;;;;;2.17;1.80;;;;;;;;;;5020153;27;100149;-71
2023/09/06 11:45:56;;;;;;;1.98;1.73;;;;;;;;;;5007717;28;98241;-71
2023/09/06 11:48:27;;;;;;;8.63;1.92;;;;;;;;;;5007886;28;98478;-71
2023/09/06 11:51:03;;;;;;;10.65;1.98;;;;;;;;;;5005578;28;98899;-71
2023/09/06 11:53:31;;;;;;;3.60;1.80;;;;;;;;;;5007236;28;98122;-72
2023/09/06 11:56:00;;;;;;;4.55;2.40;;;;;;;;;;5010291;28;99347;-71
2023/09/06 11:58:29;;;;;;;5.82;1.63;;;;;;;;;;5006562;28;98712;-71
2023/09/06 12:01:01;;;;;;;3.00;1.80;;;;;;;;;;5007272;28;99143;-71
2023/09/06 12:03:33;;;;;;;2.38;2.17;;;;;;;;;;5006107;28;98919;-71
2023/09/06 12:06:01;;;;;;;5.95;1.65;;;;;;;;;;5007401;28;98170;-70
2023/09/06 12:08:29;;;;;;;8.15;1.75;;;;;;;;;;5007139;28;99757;-72
2023/09/06 12:11:06;;;;;;;2.50;1.90;;;;;;;;;;5017506;27;100131;-70
2023/09/06 12:13:34;;;;;;;2.38;1.92;;;;;;;;;;5027050;27;98145;-71
2023/09/06 12:16:02;;;;;;;1.63;1.48;;;;;;;;;;5027093;27;98580;-71
2023/09/06 12:18:29;;;;;;;5.53;1.77;;;;;;;;;;5031052;27;98166;-71
2023/09/06 12:20:56;;;;;;;4.38;2.00;;;;;;;;;;5047499;27;99328;-70
2023/09/06 12:23:26;;;;;;;3.42;2.00;;;;;;;;;;5017438;27;101005;-71
2023/09/06 12:25:52;;;;;;;2.05;1.95;;;;;;;;;;5001302;28;98352;-70
2023/09/06 12:28:19;;;;;;;3.40;1.60;;;;;;;;;;5012818;28;98939;-72
2023/09/06 12:30:45;;;;;;;2.58;1.70;;;;;;;;;;5012459;28;98989;-71
2023/09/06 12:33:14;;;;;;;4.38;1.60;;;;;;;;;;5012005;28;98275;-71
2023/09/06 12:35:41;;;;;;;4.40;2.47;;;;;;;;;;5013529;28;98805;-70
2023/09/06 12:38:08;;;;;;;2.92;1.75;;;;;;;;;;5013247;28;99809;-71
2023/09/06 12:40:34;;;;;;;14.90;1.63;;;;;;;;;;5015877;28;98217;-72
2023/09/06 12:43:01;;;;;;;1.77;1.45;;;;;;;;;;5012904;28;98992;-70
2023/09/06 12:45:31;;;;;;;2.45;1.73;;;;;;;;;;5012224;28;98199;-70
2023/09/06 12:47:58;;;;;;;7.47;1.48;;;;;;;;;;5014334;28;99311;-70
2023/09/06 12:50:25;;;;;;;5.18;1.77;;;;;;;;;;5013839;28;100408;-71
2023/09/06 12:52:52;;;;;;;1.88;1.77;;;;;;;;;;5013342;28;98229;-71
2023/09/06 12:55:19;;;;;;;3.90;1.73;;;;;;;;;;5013430;28;99304;-70
2023/09/06 12:57:46;;;;;;;1.90;1.80;;;;;;;;;;5013158;28;99209;-71
2023/09/06 13:00:13;;;;;;;4.50;1.70;;;;;;;;;;5010594;28;98247;-71
2023/09/06 13:02:40;;;;;;;2.55;1.90;;;;;;;;;;5000646;28;98604;-71
2023/09/06 13:05:10;;;;;;;6.13;1.88;;;;;;;;;;5012979;28;98226;-70
2023/09/06 13:07:37;;;;;;;1.48;1.48;;;;;;;;;;4999933;28;99298;-71
2023/09/06 13:10:05;;;;;;;2.67;1.70;;;;;;;;;;4993106;28;99134;-71
2023/09/06 13:12:32;;;;;;;3.97;1.75;;;;;;;;;;4996446;28;98236;-71
2023/09/06 13:14:59;;;;;;;2.47;2.15;;;;;;;;;;5011313;28;98998;-70
2023/09/06 13:17:25;;;;;;;2.40;1.92;;;;;;;;;;5011957;28;98097;-71
2023/09/06 13:19:52;;;;;;;4.72;1.90;;;;;;;;;;5012969;28;98239;-70
2023/09/06 13:22:18;;;;;;;2.28;2.08;;;;;;;;;;5011839;28;98449;-71
2023/09/06 13:24:45;;;;;;;5.03;1.80;;;;;;;;;;5015258;28;98135;-70
2023/09/06 13:27:11;;;;;;;1.73;1.63;;;;;;;;;;5012526;28;99328;-70
2023/09/06 13:29:38;;;;;;;4.60;2.05;;;;;;;;;;5011578;28;99080;-71
2023/09/06 13:32:06;;;;;;;1.90;1.80;;;;;;;;;;5010203;28;98225;-70
2023/09/06 13:34:33;;;;;;;3.60;1.85;;;;;;;;;;5006184;28;99536;-70
2023/09/06 13:36:59;;;;;;;2.47;1.70;;;;;;;;;;5008150;28;100088;-69
2023/09/06 13:39:26;;;;;;;2.03;1.88;;;;;;;;;;5002498;28;99478;-69
2023/09/06 13:41:53;;;;;;;6.30;1.55;;;;;;;;;;5005763;28;99897;-69
2023/09/06 13:44:20;;;;;;;2.85;1.48;;;;;;;;;;5002117;28;98970;-70
2023/09/06 13:46:47;;;;;;;5.75;2.03;;;;;;;;;;4997117;28;98907;-70
2023/09/06 13:49:14;;;;;;;2.03;1.73;;;;;;;;;;4998635;28;99582;-70
2023/09/06 13:51:41;;;;;;;2.95;1.77;;;;;;;;;;5010062;28;98238;-69
2023/09/06 13:54:08;;;;;;;3.30;2.00;;;;;;;;;;5012012;28;98101;-69
2023/09/06 13:56:34;;;;;;;8.27;2.33;;;;;;;;;;5009496;28;99034;-69
2023/09/06 13:59:01;;;;;;;2.00;1.88;;;;;;;;;;5009317;28;99995;-71
2023/09/06 14:01:27;;;;;;;2.95;2.55;;;;;;;;;;5005753;28;99357;-71
2023/09/06 14:03:54;;;;;;;2.15;2.00;;;;;;;;;;5009325;28;101419;-69
2023/09/06 14:06:21;;;;;;;2.58;1.67;;;;;;;;;;5015126;28;98090;-69
2023/09/06 14:08:48;;;;;;;3.08;2.00;;;;;;;;;;5011816;28;99979;-70
2023/09/06 14:11:15;;;;;;;2.03;1.88;;;;;;;;;;5010585;28;98200;-70
2023/09/06 14:13:41;;;;;;;2.60;1.95;;;;;;;;;;5010124;28;99738;-71
2023/09/06 14:16:08;;;;;;;6.72;2.00;;;;;;;;;;5011711;28;99990;-70
2023/09/06 14:18:34;;;;;;;2.33;1.85;;;;;;;;;;5010488;28;98293;-70
2023/09/06 14:21:01;;;;;;;4.15;1.75;;;;;;;;;;5005342;28;99354;-70
2023/09/06 14:23:27;;;;;;;2.17;1.80;;;;;;;;;;5006743;28;99895;-70
2023/09/06 14:25:55;;;;;;;5.80;2.00;;;;;;;;;;5005521;28;98247;-70
2023/09/06 14:28:22;;;;;;;4.72;1.65;;;;;;;;;;5006375;28;98798;-70
2023/09/06 14:30:48;;;;;;;10.25;1.98;;;;;;;;;;5002020;28;98356;-71
2023/09/06 14:33:15;;;;;;;1.55;1.45;;;;;;;;;;5006510;28;99813;-72
2023/09/06 14:35:43;;;;;;;4.30;2.10;;;;;;;;;;5007409;28;99330;-69
2023/09/06 14:38:09;;;;;;;6.47;1.73;;;;;;;;;;5011005;28;98803;-70
2023/09/06 14:40:39;;;;;;;3.72;1.90;;;;;;;;;;5011361;28;98466;-70
2023/09/06 14:43:06;;;;;;;6.00;2.33;;;;;;;;;;5009368;28;99059;-70